createdAt,value
2018-09-05T00:01:23.589Z,57.50
2018-09-05T00:03:26.473Z,57.00
2018-09-05T00:05:30.140Z,57.80
2018-09-05T00:07:33.032Z,57.70
2018-09-05T00:09:35.972Z,57.70
2018-09-05T00:11:38.896Z,57.80
2018-09-05T00:13:41.792Z,57.90
2018-09-05T00:15:45.453Z,58.00
2018-09-05T00:17:48.358Z,57.90
2018-09-05T00:19:51.249Z,57.90
2018-09-05T00:21:54.128Z,57.90
2018-09-05T00:23:57.925Z,58.40
2018-09-05T00:26:00.925Z,58.10
2018-09-05T00:28:04.564Z,58.10
2018-09-05T00:30:07.480Z,58.10
2018-09-05T00:32:10.366Z,58.10
2018-09-05T00:34:13.280Z,58.30
2018-09-05T00:36:16.266Z,58.40
2018-09-05T00:38:19.904Z,58.70
2018-09-05T00:40:22.807Z,58.50
2018-09-05T00:42:25.788Z,58.60
2018-09-05T00:44:28.677Z,58.80
2018-09-05T00:46:31.575Z,58.90
2018-09-05T00:48:35.243Z,59.00
2018-09-05T00:50:39.671Z,59.10
2018-09-05T00:52:42.553Z,59.10
2018-09-05T00:54:45.644Z,59.20
2018-09-05T00:56:48.621Z,59.30
2018-09-05T00:58:51.503Z,59.30
2018-09-05T01:00:54.525Z,59.40
2018-09-05T01:02:59.001Z,59.40
2018-09-05T01:05:01.913Z,59.40
2018-09-05T01:07:04.833Z,59.40
2018-09-05T01:09:07.713Z,59.50
2018-09-05T01:11:10.776Z,59.60
2018-09-05T01:13:14.579Z,59.70
2018-09-05T01:15:18.269Z,59.60
2018-09-05T01:17:21.978Z,59.60
2018-09-05T01:19:25.720Z,59.60
2018-09-05T01:21:28.636Z,59.60
2018-09-05T01:23:33.179Z,59.60
2018-09-05T01:25:36.916Z,59.70
2018-09-05T01:27:39.841Z,59.60
2018-09-05T01:29:43.528Z,60.20
2018-09-05T01:31:46.503Z,59.70
2018-09-05T01:33:49.533Z,59.90
2018-09-05T01:35:53.216Z,60.10
2018-09-05T01:37:57.212Z,60.30
2018-09-05T01:40:00.909Z,60.20
2018-09-05T01:42:03.960Z,60.20
2018-09-05T01:44:06.916Z,60.30
2018-09-05T01:46:09.844Z,60.40
2018-09-05T01:48:12.873Z,60.60
2018-09-05T01:50:16.584Z,60.80
2018-09-05T01:52:19.517Z,60.70
2018-09-05T01:54:22.448Z,60.80
2018-09-05T01:56:25.492Z,60.90
2018-09-05T01:58:29.185Z,61.70
2018-09-05T02:00:32.117Z,60.90
2018-09-05T02:02:35.162Z,61.00
2018-09-05T02:04:38.844Z,61.90
2018-09-05T02:06:41.789Z,61.10
2018-09-05T02:08:45.070Z,61.30
2018-09-05T02:10:47.989Z,61.50
2018-09-05T02:12:50.903Z,61.70
2018-09-05T02:14:54.837Z,61.90
2018-09-05T02:16:57.781Z,61.80
2018-09-05T02:19:00.702Z,61.90
2018-09-05T02:21:03.652Z,61.90
2018-09-05T02:23:07.336Z,62.10
2018-09-05T02:25:11.765Z,62.00
2018-09-05T02:27:14.737Z,62.00
2018-09-05T02:29:17.750Z,62.00
2018-09-05T02:31:21.452Z,62.00
2018-09-05T02:33:24.638Z,61.90
2018-09-05T02:35:28.325Z,61.80
2018-09-05T02:37:32.037Z,61.80
2018-09-05T02:39:35.001Z,61.70
2018-09-05T02:41:38.705Z,61.90
2018-09-05T02:43:42.401Z,62.00
2018-09-05T02:45:46.223Z,62.10
2018-09-05T02:47:49.157Z,62.10
2018-09-05T02:49:52.192Z,62.30
2018-09-05T02:51:56.120Z,62.30
2018-09-05T02:53:59.078Z,62.30
2018-09-05T02:56:02.163Z,62.40
2018-09-05T02:58:06.170Z,62.60
2018-09-05T03:00:09.849Z,62.70
2018-09-05T03:02:12.771Z,63.40
2018-09-05T03:04:16.493Z,62.80
2018-09-05T03:06:19.415Z,62.60
2018-09-05T03:08:23.105Z,62.90
2018-09-05T03:10:27.039Z,62.70
2018-09-05T03:12:30.721Z,62.90
2018-09-05T03:14:34.430Z,63.00
2018-09-05T03:16:38.242Z,63.00
2018-09-05T03:18:41.916Z,63.10
2018-09-05T03:20:44.850Z,62.90
2018-09-05T03:22:47.909Z,63.00
2018-09-05T03:24:51.708Z,63.00
2018-09-05T03:26:54.969Z,62.90
2018-09-05T03:28:57.921Z,62.60
2018-09-05T03:31:00.846Z,62.40
2018-09-05T03:33:04.573Z,63.10
2018-09-05T03:35:08.310Z,63.20
2018-09-05T03:37:11.245Z,63.20
2018-09-05T03:39:14.185Z,63.40
2018-09-05T03:41:18.747Z,63.70
2018-09-05T03:43:22.426Z,63.80
2018-09-05T03:45:26.336Z,63.40
2018-09-05T03:47:29.528Z,63.80
2018-09-05T03:49:33.341Z,64.00
2018-09-05T03:51:37.024Z,64.10
2018-09-05T03:53:40.785Z,64.10
2018-09-05T03:55:43.704Z,64.00
2018-09-05T03:57:47.409Z,64.00
2018-09-05T03:59:51.137Z,64.00
2018-09-05T04:01:54.061Z,63.90
2018-09-05T04:03:57.090Z,63.90
2018-09-05T04:06:00.826Z,63.80
2018-09-05T04:08:03.785Z,63.80
2018-09-05T04:10:06.708Z,63.80
2018-09-05T04:12:11.337Z,63.80
2018-09-05T04:14:14.225Z,63.80
2018-09-05T04:16:18.675Z,64.00
2018-09-05T04:18:22.479Z,64.50
2018-09-05T04:20:26.178Z,64.00
2018-09-05T04:22:29.849Z,64.10
2018-09-05T04:24:32.871Z,64.00
2018-09-05T04:26:36.547Z,64.10
2018-09-05T04:28:40.248Z,64.30
2018-09-05T04:30:43.216Z,64.20
2018-09-05T04:32:46.154Z,64.30
2018-09-05T04:34:49.086Z,64.20
2018-09-05T04:36:52.825Z,64.30
2018-09-05T04:38:55.764Z,64.30
2018-09-05T04:40:59.460Z,64.30
2018-09-05T04:43:02.487Z,64.30
2018-09-05T04:45:05.420Z,64.40
2018-09-05T04:47:09.872Z,65.30
2018-09-05T04:49:13.761Z,64.50
2018-09-05T04:51:17.565Z,64.60
2018-09-05T04:53:21.260Z,64.70
2018-09-05T04:55:25.083Z,64.70
2018-09-05T04:57:28.785Z,64.70
2018-09-05T04:59:32.460Z,64.90
2018-09-05T05:01:36.396Z,65.50
2018-09-05T05:03:39.321Z,64.80
2018-09-05T05:05:42.332Z,64.90
2018-09-05T05:07:45.360Z,65.00
2018-09-05T05:09:48.275Z,65.10
2018-09-05T05:11:51.200Z,65.30
2018-09-05T05:13:54.931Z,65.50
2018-09-05T05:15:57.843Z,65.50
2018-09-05T05:18:00.789Z,65.50
2018-09-05T05:20:03.730Z,65.60
2018-09-05T05:22:07.426Z,65.60
2018-09-05T05:24:11.117Z,65.60
2018-09-05T05:26:15.597Z,65.70
2018-09-05T05:28:18.546Z,65.60
2018-09-05T05:30:22.247Z,65.70
2018-09-05T05:32:25.996Z,65.70
2018-09-05T05:34:29.030Z,65.70
2018-09-05T05:36:32.706Z,65.80
2018-09-05T05:38:36.532Z,65.80
2018-09-05T05:40:40.334Z,66.00
2018-09-05T05:42:44.010Z,66.00
2018-09-05T05:44:46.944Z,65.90
2018-09-05T05:46:50.740Z,66.10
2018-09-05T05:48:54.400Z,66.10
2018-09-05T05:50:58.118Z,66.10
2018-09-05T05:53:01.819Z,66.30
2018-09-05T05:55:05.555Z,66.40
2018-09-05T05:57:08.704Z,66.30
2018-09-05T05:59:12.396Z,66.40
2018-09-05T06:01:16.167Z,66.90
2018-09-05T06:03:20.111Z,66.60
2018-09-05T06:05:23.050Z,66.50
2018-09-05T06:07:26.098Z,66.50
2018-09-05T06:09:29.037Z,66.50
2018-09-05T06:11:32.145Z,66.60
2018-09-05T06:13:35.854Z,66.80
2018-09-05T06:15:38.939Z,66.70
2018-09-05T06:17:42.806Z,67.00
2018-09-05T06:19:45.673Z,67.00
2018-09-05T06:21:48.645Z,67.00
2018-09-05T06:23:51.575Z,67.00
2018-09-05T06:25:54.561Z,67.00
2018-09-05T06:27:58.274Z,67.20
2018-09-05T06:30:01.202Z,67.10
2018-09-05T06:32:04.112Z,67.10
2018-09-05T06:34:07.863Z,67.20
2018-09-05T06:36:10.811Z,67.10
2018-09-05T06:38:14.490Z,67.20
2018-09-05T06:40:18.317Z,67.70
2018-09-05T06:42:21.241Z,67.10
2018-09-05T06:44:24.280Z,67.20
2018-09-05T06:46:28.015Z,67.00
2018-09-05T06:48:30.937Z,67.00
2018-09-05T06:50:34.642Z,67.00
2018-09-05T06:52:37.773Z,67.00
2018-09-05T06:54:40.695Z,67.00
2018-09-05T06:56:43.630Z,67.00
2018-09-05T06:58:46.596Z,67.00
2018-09-05T07:00:50.296Z,67.00
2018-09-05T07:02:53.242Z,67.00
2018-09-05T07:04:56.466Z,66.90
2018-09-05T07:06:59.401Z,66.80
2018-09-05T07:09:02.325Z,66.80
2018-09-05T07:11:06.069Z,66.40
2018-09-05T07:13:09.011Z,66.40
2018-09-05T07:15:12.714Z,66.30
2018-09-05T07:17:16.434Z,66.10
2018-09-05T07:19:19.377Z,66.00
2018-09-05T07:21:22.374Z,66.00
2018-09-05T07:23:25.284Z,65.80
2018-09-05T07:25:28.210Z,65.70
2018-09-05T07:27:31.929Z,65.40
2018-09-05T07:29:35.861Z,65.30
2018-09-05T07:31:38.805Z,65.20
2018-09-05T07:33:42.520Z,65.10
2018-09-05T07:35:46.399Z,65.00
2018-09-05T07:37:49.269Z,64.80
2018-09-05T07:39:52.295Z,64.70
2018-09-05T07:41:56.007Z,64.60
2018-09-05T07:43:58.937Z,64.50
2018-09-05T07:46:01.963Z,64.30
2018-09-05T07:48:05.731Z,64.10
2018-09-05T07:50:08.737Z,64.10
2018-09-05T07:52:12.432Z,63.90
2018-09-05T07:54:16.169Z,63.80
2018-09-05T07:56:19.097Z,63.70
2018-09-05T07:58:22.025Z,63.60
2018-09-05T08:00:25.197Z,63.60
2018-09-05T08:02:28.877Z,63.40
2018-09-05T08:04:31.837Z,63.20
2018-09-05T08:06:34.805Z,63.30
2018-09-05T08:08:37.731Z,63.00
2018-09-05T08:10:41.429Z,62.80
2018-09-05T08:12:45.173Z,62.90
2018-09-05T08:14:48.106Z,62.70
2018-09-05T08:16:51.809Z,62.60
2018-09-05T08:18:55.542Z,62.50
2018-09-05T08:20:58.489Z,62.40
2018-09-05T08:23:01.423Z,62.10
2018-09-05T08:25:04.397Z,61.90
2018-09-05T08:27:07.317Z,61.70
2018-09-05T08:29:10.377Z,61.50
2018-09-05T08:31:14.450Z,61.40
2018-09-05T08:33:18.968Z,61.40
2018-09-05T08:35:22.839Z,61.40
2018-09-05T08:37:25.987Z,61.30
2018-09-05T08:39:29.533Z,61.20
2018-09-05T08:41:33.302Z,62.00
2018-09-05T08:43:37.092Z,61.10
2018-09-05T08:45:40.279Z,61.00
2018-09-05T08:47:43.876Z,60.90
2018-09-05T08:49:46.809Z,60.80
2018-09-05T08:51:50.493Z,60.50
2018-09-05T08:53:53.429Z,60.40
2018-09-05T08:55:56.596Z,60.30
2018-09-05T08:58:00.272Z,60.20
2018-09-05T09:00:04.098Z,60.20
2018-09-05T09:02:07.055Z,60.10
2018-09-05T09:04:10.765Z,59.50
2018-09-05T09:06:13.806Z,60.00
2018-09-05T09:08:16.847Z,60.00
2018-09-05T09:10:20.527Z,59.50
2018-09-05T09:12:24.248Z,59.30
2018-09-05T09:14:27.965Z,59.00
2018-09-05T09:16:30.885Z,59.00
2018-09-05T09:18:33.811Z,58.80
2018-09-05T09:20:37.536Z,58.70
2018-09-05T09:22:40.465Z,58.60
2018-09-05T09:24:45.013Z,58.40
2018-09-05T09:26:48.930Z,58.30
2018-09-05T09:28:51.849Z,58.20
2018-09-05T09:30:54.782Z,58.50
2018-09-05T09:32:58.496Z,57.50
2018-09-05T09:35:01.417Z,57.40
2018-09-05T09:37:04.382Z,57.40
2018-09-05T09:39:07.444Z,57.30
2018-09-05T09:41:10.377Z,57.20
2018-09-05T09:43:13.400Z,57.10
2018-09-05T09:45:17.117Z,57.30
2018-09-05T09:47:20.046Z,57.20
2018-09-05T09:49:23.077Z,57.20
2018-09-05T09:51:26.025Z,57.10
2018-09-05T09:53:28.945Z,57.10
2018-09-05T09:55:31.874Z,57.00
2018-09-05T09:57:34.828Z,56.90
2018-09-05T09:59:37.878Z,56.70
2018-09-05T10:01:58.188Z,56.30
2018-09-05T10:04:21.116Z,56.20
2018-09-05T10:06:24.901Z,55.60
2018-09-05T10:08:28.620Z,56.10
2018-09-05T10:10:32.358Z,55.90
2018-09-05T10:12:40.945Z,55.90
2018-09-05T10:14:43.914Z,55.80
2018-09-05T10:16:46.873Z,55.80
2018-09-05T10:18:49.869Z,55.70
2018-09-05T10:20:53.599Z,55.20
2018-09-05T10:22:57.384Z,55.00
2018-09-05T10:25:01.151Z,54.70
2018-09-05T10:27:04.093Z,54.60
2018-09-05T10:29:07.076Z,54.40
2018-09-05T10:31:09.996Z,54.50
2018-09-05T10:33:13.018Z,54.60
2018-09-05T10:35:16.736Z,54.50
2018-09-05T10:37:19.665Z,54.60
2018-09-05T10:39:22.683Z,54.00
2018-09-05T10:41:26.405Z,53.50
2018-09-05T10:43:29.322Z,53.40
2018-09-05T10:45:32.285Z,53.30
2018-09-05T10:47:35.331Z,53.20
2018-09-05T10:49:39.133Z,52.30
2018-09-05T10:51:42.132Z,52.30
2018-09-05T10:53:45.305Z,52.00
2018-09-05T10:55:49.006Z,51.70
2018-09-05T10:57:52.704Z,51.60
2018-09-05T10:59:56.420Z,51.40
2018-09-05T11:01:59.387Z,51.40
2018-09-05T11:04:03.080Z,50.30
2018-09-05T11:06:06.804Z,49.70
2018-09-05T11:08:09.722Z,49.60
2018-09-05T11:10:12.637Z,49.00
2018-09-05T11:12:16.454Z,48.10
2018-09-05T11:14:20.158Z,47.80
2018-09-05T11:16:23.853Z,47.50
2018-09-05T11:18:27.557Z,47.30
2018-09-05T11:20:30.486Z,47.20
2018-09-05T11:22:33.423Z,46.90
2018-09-05T11:24:36.609Z,46.70
2018-09-05T11:26:40.288Z,46.40
2018-09-05T11:28:43.989Z,45.80
2018-09-05T11:30:47.705Z,45.50
2018-09-05T11:32:51.398Z,45.50
2018-09-05T11:34:55.073Z,45.70
2018-09-05T11:36:59.071Z,45.00
2018-09-05T11:39:01.955Z,45.40
2018-09-05T11:41:04.977Z,45.20
2018-09-05T11:43:08.709Z,44.70
2018-09-05T11:45:11.673Z,44.70
2018-09-05T11:47:14.618Z,44.60
2018-09-05T11:49:17.590Z,44.40
2018-09-05T11:51:20.537Z,44.10
2018-09-05T11:53:23.452Z,43.80
2018-09-05T11:55:26.409Z,43.90
2018-09-05T11:57:29.454Z,43.60
2018-09-05T11:59:33.152Z,43.40
2018-09-05T12:01:36.868Z,43.10
2018-09-05T12:03:39.796Z,43.00
2018-09-05T12:05:42.820Z,43.20
2018-09-05T12:07:46.753Z,42.90
2018-09-05T12:09:49.681Z,42.70
2018-09-05T12:11:52.613Z,42.30
2018-09-05T12:13:55.698Z,42.00
2018-09-05T12:15:58.601Z,41.80
2018-09-05T12:18:01.521Z,41.10
2018-09-05T12:20:04.465Z,40.90
2018-09-05T12:22:07.469Z,41.00
2018-09-05T12:24:10.484Z,41.10
2018-09-05T12:26:14.392Z,41.20
2018-09-05T12:28:18.093Z,40.90
2018-09-05T12:30:21.891Z,40.70
2018-09-05T12:32:25.644Z,40.90
2018-09-05T12:34:28.565Z,40.70
2018-09-05T12:36:32.257Z,41.10
2018-09-05T12:38:36.178Z,41.50
2018-09-05T12:40:39.852Z,41.60
2018-09-05T12:42:43.544Z,42.30
2018-09-05T12:44:46.555Z,41.50
2018-09-05T12:46:49.428Z,41.40
2018-09-05T12:48:53.117Z,41.10
2018-09-05T12:50:56.329Z,41.00
2018-09-05T12:53:00.009Z,40.30
2018-09-05T12:55:03.708Z,40.50
2018-09-05T12:57:07.532Z,39.90
2018-09-05T12:59:11.342Z,39.50
2018-09-05T13:01:14.278Z,39.40
2018-09-05T13:03:17.244Z,39.40
2018-09-05T13:05:20.273Z,39.20
2018-09-05T13:07:23.961Z,39.00
2018-09-05T13:09:27.171Z,39.10
2018-09-05T13:11:30.911Z,38.70
2018-09-05T13:13:34.565Z,38.80
2018-09-05T13:15:38.285Z,39.00
2018-09-05T13:17:41.229Z,39.70
2018-09-05T13:19:44.922Z,38.90
2018-09-05T13:21:47.913Z,38.80
2018-09-05T13:23:50.822Z,38.80
2018-09-05T13:25:53.736Z,38.30
2018-09-05T13:27:56.686Z,38.10
2018-09-05T13:30:00.368Z,37.60
2018-09-05T13:32:04.045Z,38.30
2018-09-05T13:34:07.025Z,37.60
2018-09-05T13:36:09.957Z,37.30
2018-09-05T13:38:12.879Z,36.80
2018-09-05T13:40:15.832Z,36.30
2018-09-05T13:42:18.792Z,35.90
2018-09-05T13:44:22.491Z,35.80
2018-09-05T13:46:26.396Z,35.50
2018-09-05T13:48:30.109Z,35.50
2018-09-05T13:50:33.898Z,35.60
2018-09-05T13:52:37.685Z,35.60
2018-09-05T13:54:41.365Z,35.60
2018-09-05T13:56:44.383Z,35.50
2018-09-05T13:58:48.185Z,35.50
2018-09-05T14:00:51.850Z,35.50
2018-09-05T14:02:54.941Z,35.50
2018-09-05T14:04:57.841Z,35.20
2018-09-05T14:07:01.536Z,34.40
2018-09-05T14:09:05.236Z,34.30
2018-09-05T14:11:09.163Z,34.50
2018-09-05T14:13:12.960Z,34.30
2018-09-05T14:15:16.662Z,34.40
2018-09-05T14:17:19.609Z,34.40
2018-09-05T14:19:22.534Z,34.00
2018-09-05T14:21:25.447Z,33.90
2018-09-05T14:23:28.529Z,33.80
2018-09-05T14:25:31.454Z,33.60
2018-09-05T14:27:35.141Z,33.30
2018-09-05T14:29:38.093Z,33.20
2018-09-05T14:31:41.034Z,33.10
2018-09-05T14:33:44.704Z,33.10
2018-09-05T14:35:47.738Z,33.00
2018-09-05T14:37:50.646Z,33.20
2018-09-05T14:39:53.594Z,33.30
2018-09-05T14:41:56.586Z,33.40
2018-09-05T14:43:59.505Z,33.40
2018-09-05T14:46:02.422Z,33.40
2018-09-05T14:48:06.257Z,33.40
2018-09-05T14:50:09.169Z,33.20
2018-09-05T14:52:12.090Z,33.10
2018-09-05T14:54:15.822Z,32.90
2018-09-05T14:56:18.741Z,32.80
2018-09-05T14:58:21.669Z,32.80
2018-09-05T15:00:24.616Z,32.90
2018-09-05T15:02:29.058Z,32.50
2018-09-05T15:04:32.021Z,32.50
2018-09-05T15:06:35.215Z,32.60
2018-09-05T15:08:38.073Z,32.50
2018-09-05T15:10:40.993Z,32.30
2018-09-05T15:12:44.727Z,32.20
2018-09-05T15:14:47.676Z,32.10
2018-09-05T15:16:51.372Z,32.00
2018-09-05T15:18:55.184Z,32.00
2018-09-05T15:20:58.121Z,31.90
2018-09-05T15:23:01.054Z,31.80
2018-09-05T15:25:04.036Z,31.60
2018-09-05T15:27:06.964Z,31.60
2018-09-05T15:31:14.253Z,31.70
2018-09-05T15:33:17.181Z,31.90
2018-09-05T15:35:20.849Z,32.20
2018-09-05T15:37:23.796Z,32.00
2018-09-05T15:39:26.723Z,32.10
2018-09-05T15:41:29.645Z,32.10
2018-09-05T15:43:32.591Z,32.00
2018-09-05T15:45:35.592Z,31.90
2018-09-05T15:47:39.252Z,31.90
2018-09-05T15:49:42.586Z,31.80
2018-09-05T15:51:45.508Z,31.90
2018-09-05T15:53:48.461Z,32.10
2018-09-05T15:55:52.167Z,32.10
2018-09-05T15:57:55.070Z,32.00
2018-09-05T15:59:57.981Z,32.60
2018-09-05T16:02:00.949Z,31.90
2018-09-05T16:04:03.850Z,31.90
2018-09-05T16:06:06.877Z,31.90
2018-09-05T16:08:10.043Z,32.00
2018-09-05T16:10:13.713Z,32.50
2018-09-05T16:12:16.632Z,31.80
2018-09-05T16:14:19.589Z,31.60
2018-09-05T16:16:22.500Z,31.50
2018-09-05T16:18:25.405Z,31.40
2018-09-05T16:20:28.556Z,31.30
2018-09-05T16:22:31.480Z,31.30
2018-09-05T16:24:34.396Z,31.10
2018-09-05T16:26:37.385Z,31.10
2018-09-05T16:28:40.297Z,31.10
2018-09-05T16:30:43.294Z,31.00
2018-09-05T16:32:46.278Z,30.90
2018-09-05T16:34:49.186Z,31.10
2018-09-05T16:36:52.092Z,31.20
2018-09-05T16:38:55.893Z,31.00
2018-09-05T16:40:58.809Z,31.00
2018-09-05T16:43:02.481Z,30.90
2018-09-05T16:45:05.439Z,30.80
2018-09-05T16:47:08.344Z,31.00
2018-09-05T16:49:11.257Z,31.60
2018-09-05T16:51:14.314Z,30.90
2018-09-05T16:53:17.253Z,30.90
2018-09-05T16:55:20.153Z,30.90
2018-09-05T16:57:23.288Z,31.00
2018-09-05T16:59:27.000Z,31.10
2018-09-05T17:01:29.923Z,31.00
2018-09-05T17:03:32.878Z,31.20
2018-09-05T17:05:35.822Z,31.20
2018-09-05T17:07:39.532Z,31.30
2018-09-05T17:09:42.621Z,31.20
2018-09-05T17:11:45.545Z,31.30
2018-09-05T17:13:48.574Z,31.40
2018-09-05T17:15:52.301Z,31.30
2018-09-05T17:17:55.226Z,31.20
2018-09-05T17:19:59.042Z,31.20
2018-09-05T17:22:03.065Z,31.10
2018-09-05T17:24:06.740Z,31.10
2018-09-05T17:26:09.942Z,31.00
2018-09-05T17:28:13.410Z,31.80
2018-09-05T17:30:16.741Z,31.20
2018-09-05T17:32:19.764Z,31.30
2018-09-05T17:34:23.011Z,31.40
2018-09-05T17:36:27.621Z,31.50
2018-09-05T17:38:31.304Z,31.60
2018-09-05T17:40:34.265Z,31.50
2018-09-05T17:42:37.174Z,31.70
2018-09-05T17:44:40.281Z,31.80
2018-09-05T17:46:44.017Z,32.00
2018-09-05T17:48:46.941Z,32.00
2018-09-05T17:50:49.947Z,32.10
2018-09-05T17:52:53.690Z,32.30
2018-09-05T17:54:56.616Z,32.30
2018-09-05T17:57:00.330Z,32.70
2018-09-05T17:59:04.061Z,32.80
2018-09-05T18:01:06.973Z,32.80
2018-09-05T18:03:09.997Z,32.90
2018-09-05T18:05:13.701Z,33.30
2018-09-05T18:07:17.395Z,33.40
2018-09-05T18:09:21.078Z,33.70
2018-09-05T18:11:24.811Z,33.80
2018-09-05T18:13:27.731Z,33.80
2018-09-05T18:15:30.669Z,33.90
2018-09-05T18:17:33.644Z,34.10
2018-09-05T18:19:37.318Z,34.50
2018-09-05T18:21:40.248Z,34.50
2018-09-05T18:23:43.412Z,34.60
2018-09-05T18:25:46.399Z,34.70
2018-09-05T18:27:50.068Z,35.10
2018-09-05T18:29:54.003Z,34.60
2018-09-05T18:31:57.715Z,35.20
2018-09-05T18:34:00.633Z,35.80
2018-09-05T18:36:05.414Z,35.20
2018-09-05T18:38:08.456Z,35.40
2018-09-05T18:40:11.329Z,35.50
2018-09-05T18:42:14.285Z,35.60
2018-09-05T18:44:17.209Z,35.60
2018-09-05T18:46:21.656Z,35.90
2018-09-05T18:48:25.537Z,35.90
2018-09-05T18:50:29.230Z,36.00
2018-09-05T18:52:32.178Z,36.00
2018-09-05T18:54:35.114Z,36.10
2018-09-05T18:56:38.797Z,36.40
2018-09-05T18:58:41.721Z,36.30
2018-09-05T19:00:44.956Z,36.40
2018-09-05T19:02:47.894Z,36.60
2018-09-05T19:04:50.837Z,36.70
2018-09-05T19:06:53.879Z,36.80
2018-09-05T19:08:57.560Z,37.00
2018-09-05T19:11:00.624Z,37.00
2018-09-05T19:13:04.349Z,37.50
2018-09-05T19:15:07.273Z,37.10
2018-09-05T19:17:11.825Z,37.20
2018-09-05T19:19:15.557Z,37.30
2018-09-05T19:21:18.490Z,37.30
2018-09-05T19:23:22.180Z,37.50
2018-09-05T19:25:25.261Z,37.50
2018-09-05T19:27:28.277Z,37.60
2018-09-05T19:29:32.078Z,37.70
2018-09-05T19:31:35.880Z,37.70
2018-09-05T19:33:39.577Z,37.60
2018-09-05T19:35:43.261Z,37.70
2018-09-05T19:37:47.002Z,37.90
2018-09-05T19:39:49.989Z,37.80
2018-09-05T19:41:52.905Z,38.00
2018-09-05T19:43:55.869Z,38.10
2018-09-05T19:45:58.815Z,38.20
2018-09-05T19:48:01.767Z,38.40
2018-09-05T19:50:06.784Z,38.40
2018-09-05T19:52:09.808Z,38.40
2018-09-05T19:54:13.487Z,38.50
2018-09-05T19:56:16.597Z,38.40
2018-09-05T19:58:19.529Z,38.40
2018-09-05T20:00:22.463Z,38.40
2018-09-05T20:02:26.420Z,38.40
2018-09-05T20:04:29.363Z,38.40
2018-09-05T20:06:32.288Z,38.20
2018-09-05T20:08:35.461Z,38.20
2018-09-05T20:10:38.370Z,38.00
2018-09-05T20:12:41.381Z,38.00
2018-09-05T20:14:45.101Z,38.00
2018-09-05T20:16:48.007Z,37.90
2018-09-05T20:18:51.781Z,37.90
2018-09-05T20:20:54.745Z,37.90
2018-09-05T20:22:58.424Z,37.90
2018-09-05T20:25:02.146Z,38.20
2018-09-05T20:27:05.852Z,37.90
2018-09-05T20:29:08.783Z,37.70
2018-09-05T20:31:11.813Z,37.80
2018-09-05T20:33:15.830Z,37.80
2018-09-05T20:35:19.508Z,37.80
2018-09-05T20:37:23.195Z,37.80
2018-09-05T20:39:26.331Z,37.80
2018-09-05T20:41:29.240Z,37.80
2018-09-05T20:43:32.212Z,37.90
2018-09-05T20:45:35.252Z,37.80
2018-09-05T20:47:38.931Z,37.80
2018-09-05T20:49:43.349Z,37.80
2018-09-05T20:51:46.301Z,37.70
2018-09-05T20:53:49.213Z,37.80
2018-09-05T20:55:52.317Z,37.80
2018-09-05T20:57:56.026Z,37.90
2018-09-05T20:59:59.001Z,37.90
2018-09-05T21:02:02.681Z,38.00
2018-09-05T21:04:05.628Z,37.90
2018-09-05T21:06:08.596Z,37.90
2018-09-05T21:08:12.244Z,37.90
2018-09-05T21:10:15.966Z,37.90
2018-09-05T21:12:18.908Z,37.80
2018-09-05T21:14:21.930Z,37.80
2018-09-05T21:16:25.749Z,37.80
2018-09-05T21:18:28.730Z,37.70
2018-09-05T21:20:31.653Z,37.60
2018-09-05T21:22:34.886Z,37.70
2018-09-05T21:24:38.585Z,37.70
2018-09-05T21:26:42.390Z,37.60
2018-09-05T21:28:46.101Z,37.60
2018-09-05T21:30:49.025Z,37.60
2018-09-05T21:32:51.974Z,37.50
2018-09-05T21:34:54.920Z,37.50
2018-09-05T21:36:58.597Z,37.50
2018-09-05T21:39:01.582Z,37.40
2018-09-05T21:41:04.577Z,37.50
2018-09-05T21:43:07.507Z,37.40
2018-09-05T21:45:10.438Z,37.40
2018-09-05T21:47:13.410Z,37.40
2018-09-05T21:49:16.430Z,37.40
2018-09-05T21:51:19.432Z,37.40
2018-09-05T21:53:22.605Z,37.40
2018-09-05T21:55:26.289Z,37.50
2018-09-05T21:57:29.983Z,37.40
2018-09-05T21:59:33.818Z,37.30
2018-09-05T22:01:36.743Z,37.40
2018-09-05T22:03:39.770Z,37.40
2018-09-05T22:05:43.572Z,37.50
2018-09-05T22:07:47.248Z,37.50
2018-09-05T22:09:51.669Z,37.50
2018-09-05T22:11:54.632Z,37.50
2018-09-05T22:13:57.544Z,37.50
2018-09-05T22:16:01.225Z,37.90
2018-09-05T22:18:04.178Z,37.50
2018-09-05T22:20:07.101Z,37.50
2018-09-05T22:22:10.028Z,37.60
2018-09-05T22:24:12.980Z,37.60
2018-09-05T22:26:16.656Z,37.60
2018-09-05T22:28:19.582Z,37.60
2018-09-05T22:30:22.543Z,37.60
2018-09-05T22:32:26.346Z,37.70
2018-09-05T22:34:29.340Z,37.60
2018-09-05T22:36:33.052Z,37.80
2018-09-05T22:38:35.977Z,37.70
2018-09-05T22:40:38.896Z,37.70
2018-09-05T22:42:42.609Z,37.80
2018-09-05T22:44:57.345Z,37.80
2018-09-05T22:47:22.699Z,37.80
2018-09-05T22:49:26.409Z,37.80
2018-09-05T22:51:44.218Z,37.70
2018-09-05T22:54:02.128Z,37.80
2018-09-05T22:56:20.754Z,37.80
2018-09-05T22:58:24.488Z,37.90
2018-09-05T23:00:27.444Z,37.80
2018-09-05T23:02:30.566Z,37.90
2018-09-05T23:04:33.627Z,37.90
2018-09-05T23:06:37.318Z,38.00
2018-09-05T23:08:41.047Z,38.40
2018-09-05T23:11:09.846Z,37.90
2018-09-05T23:13:21.740Z,37.90
2018-09-05T23:15:47.442Z,37.90
2018-09-05T23:18:14.026Z,37.90
2018-09-05T23:20:16.966Z,37.90
2018-09-05T23:22:20.961Z,38.10
2018-09-05T23:24:23.878Z,38.00
2018-09-05T23:26:26.917Z,38.10
2018-09-05T23:28:30.816Z,38.30
2018-09-05T23:30:34.625Z,38.30
2018-09-05T23:32:38.326Z,38.30
2018-09-05T23:34:42.046Z,38.30
2018-09-05T23:36:44.975Z,38.30
2018-09-05T23:38:47.894Z,38.30
2018-09-05T23:40:50.853Z,38.40
2018-09-05T23:42:54.668Z,38.70
2018-09-05T23:44:58.352Z,38.80
2018-09-05T23:47:02.175Z,39.00
2018-09-05T23:49:05.854Z,38.90
2018-09-05T23:51:09.571Z,39.30
2018-09-05T23:53:13.291Z,38.90
2018-09-05T23:55:16.202Z,38.90
2018-09-05T23:57:19.118Z,38.90
2018-09-05T23:59:23.057Z,39.10
